Bodcau, Louisiana
Current Conditions -  °F | °C
As of 4:58 PM on Monday 24 Nov 2014 (Local Time) from KBAD Reporting Station
Broken Clouds Broken Clouds  
Wind Chill: 58°   Ceiling: 20000
Heat Index: 58°   Visibility: 10mi
Dew Point: 25°   Wind: 6mph
Humidity: 29%   Direction: 290°WNW
Pressure: 30.02"   Gusts: NA
Location:  32.5391°N, 93.5257°W
Report Text: KBAD 242258Z AUTO 29005KT 10SM BKN200 14/M04 A3002 RMK AO2 SLP169 T01441037
Loading
Personal Weather Stations






























Interactive Weather Map New forecast layout! Learn more

10-Day Weather Forecast

Advertisements
Track Severe Weather on mobile